Stolt Effort — ZCSP6 — position and weather

sailwx.info

Track history (hours):
 
Tides and Currents Weather Stations Pressure Air Temp Water Temp Dewpoint Dewpoint Depression Visibility Wind Speed Wind Dir Waves Ship Positions

Stolt Effort

Last reported at 2017-Mar-19 12:33 UTC. Time now 2017-Mar-28 23:21 UTC.
Position S 30°26' E 031°32'.
Warning: this ship's position is 9 days out of date.

Length 176 m; draft 9.8 m.

Type: Ship. MMSI: 319445000.

Date/timePositionNaut miles runAvg speedWind from/ knotsBaromVisibWave heightAir tempDewpointWater temp
2017-Mar-19 12:33S 30°26' E 031°32'1414.0
2017-Mar-19 11:33S 30°13' E 031°39'1515.2
2017-Mar-19 10:33S 29°59' E 031°46'1615.9
2017-Mar-19 09:33S 29°45' E 031°53'3615.7
2017-Mar-19 07:16S 29°11' E 032°09'1114.9
2017-Mar-19 06:33S 29°01' E 032°10'1211.9
2017-Mar-19 05:33S 28°49' E 032°07'3 3.3
2017-Mar-19 04:31S 28°48' E 032°04'0 0.0
2017-Mar-19 03:31S 28°48' E 032°04'0 0.0
2017-Mar-19 02:31S 28°48' E 032°04'0 0.0
2017-Mar-19 01:31S 28°48' E 032°04'0 0.0
2017-Mar-19 00:31S 28°48' E 032°04'0 0.0
2017-Mar-18 23:31S 28°48' E 032°04'0 0.0
2017-Mar-18 22:31S 28°48' E 032°04'0 0.0
2017-Mar-18 21:31S 28°48' E 032°04'0 0.0
2017-Mar-18 20:31S 28°48' E 032°04'0 0.0
2017-Mar-18 19:31S 28°48' E 032°04'0 0.0
2017-Mar-18 18:31S 28°48' E 032°04'0 0.0
2017-Mar-18 17:31S 28°48' E 032°04'0 0.0
2017-Mar-18 16:31S 28°48' E 032°04'0 0.0
2017-Mar-18 15:31S 28°48' E 032°04'0 0.0
2017-Mar-18 14:31S 28°48' E 032°04'0 0.0
2017-Mar-18 13:31S 28°48' E 032°04'0 0.0
2017-Mar-18 12:31S 28°48' E 032°04'0 0.0
2017-Mar-18 11:31S 28°48' E 032°04'0 0.0
2017-Mar-18 10:31S 28°48' E 032°04'0 0.0
2017-Mar-18 09:31S 28°48' E 032°04'0 0.0
2017-Mar-18 08:31S 28°48' E 032°04'0 0.0
2017-Mar-18 07:31S 28°48' E 032°04'0 0.0
2017-Mar-18 06:22S 28°48' E 032°04'0 0.0
2017-Mar-18 05:31S 28°48' E 032°04'0 0.0
2017-Mar-18 04:31S 28°48' E 032°04'0 0.0
2017-Mar-18 03:31S 28°48' E 032°04'0 0.0
2017-Mar-18 02:31S 28°48' E 032°04'0 0.0
2017-Mar-18 01:31S 28°48' E 032°04'0 0.0
2017-Mar-18 00:28S 28°48' E 032°04'0 0.0
2017-Mar-17 23:31S 28°48' E 032°04'0 0.0
2017-Mar-17 22:31S 28°48' E 032°04'0 0.0
2017-Mar-17 21:31S 28°48' E 032°04'0 0.0
2017-Mar-17 20:31S 28°48' E 032°04'0 0.1
2017-Mar-17 19:33S 28°48' E 032°03'5 5.1
2017-Mar-17 18:33S 28°51' E 032°08'1 0.6
2017-Mar-17 17:33S 28°52' E 032°08'3 3.2
2017-Mar-17 16:33S 28°51' E 032°12'1010.0
2017-Mar-17 15:33S 29°00' E 032°07'4 3.7
2017-Mar-17 14:33S 29°04' E 032°07'1 0.9
2017-Mar-17 13:33S 29°04' E 032°06'1111.5
2017-Mar-17 12:34S 29°12' E 031°56'1514.7
2017-Mar-17 11:33S 29°24' E 031°46'1515.2
2017-Mar-17 10:33S 29°36' E 031°35'1514.7
2017-Mar-17 09:32S 29°47' E 031°24'1414.4
2017-Mar-17 08:33S 29°50' E 031°08'6 5.5
2017-Mar-17 07:31S 29°53' E 031°02'0 0.0
2017-Mar-17 06:31S 29°53' E 031°02'0 0.0
2017-Mar-17 05:31S 29°53' E 031°02'0 0.0
2017-Mar-17 04:31S 29°53' E 031°02'0 0.0
2017-Mar-17 03:31S 29°53' E 031°02'0 0.0
2017-Mar-17 02:31S 29°53' E 031°02'0 0.0
2017-Mar-17 01:31S 29°53' E 031°02'0 0.0
2017-Mar-17 00:31S 29°53' E 031°02'0 0.0
2017-Mar-16 23:31S 29°53' E 031°02'0 0.0
2017-Mar-16 22:31S 29°53' E 031°02'0 0.0
2017-Mar-16 21:25S 29°53' E 031°02'0 0.0
2017-Mar-16 20:28S 29°53' E 031°02'0 0.0
2017-Mar-16 19:31S 29°53' E 031°02'0 0.0
2017-Mar-16 18:31S 29°53' E 031°02'0 0.0
2017-Mar-16 17:31S 29°53' E 031°02'0 0.0
2017-Mar-16 16:31S 29°53' E 031°02'0 0.0
2017-Mar-16 15:31S 29°53' E 031°02'0 0.0
2017-Mar-16 14:31S 29°53' E 031°02'0 0.0
2017-Mar-16 13:31S 29°53' E 031°02'0 0.0
2017-Mar-16 12:31S 29°53' E 031°02'0 0.0
2017-Mar-16 11:31S 29°53' E 031°02'0 0.0
2017-Mar-16 10:31S 29°53' E 031°02'0 0.0
2017-Mar-16 09:31S 29°53' E 031°02'0 0.0
2017-Mar-16 08:31S 29°53' E 031°02'0 0.0
2017-Mar-16 07:31S 29°53' E 031°02'0 0.0
2017-Mar-16 06:31S 29°53' E 031°02'0 0.0
2017-Mar-16 05:31S 29°53' E 031°02'0 0.0
2017-Mar-16 04:31S 29°53' E 031°02'0 0.0
2017-Mar-16 03:28S 29°53' E 031°02'0 0.0
2017-Mar-16 02:31S 29°53' E 031°02'0 0.0
2017-Mar-16 01:31S 29°53' E 031°02'0 0.0
2017-Mar-16 00:31S 29°53' E 031°02'0 0.0
2017-Mar-15 23:31S 29°53' E 031°02'0 0.0
2017-Mar-15 22:31S 29°53' E 031°02'0 0.0
2017-Mar-15 21:31S 29°53' E 031°02'0 0.1
2017-Mar-15 20:33S 29°53' E 031°02'6 5.9
2017-Mar-15 19:32S 29°49' E 031°08'9 9.2
2017-Mar-15 18:32S 29°47' E 031°18'1414.7
2017-Mar-15 17:33S 29°44' E 031°34'13315.8
2017-Mar-15 09:09S 29°16' E 034°03'  
Track history (hours):
 
Tides and Currents Weather Stations Pressure Air Temp Water Temp Dewpoint Dewpoint Depression Visibility Wind Speed Wind Dir Waves Ship Positions

Stolt Effort

Last reported at 2017-Mar-19 12:33 UTC. Time now 2017-Mar-28 23:21 UTC.
Position S 30°26' E 031°32'.
Warning: this ship's position is 9 days out of date.

Length 176 m; draft 9.8 m.

Type: Ship. MMSI: 319445000.

Date/timePositionNaut miles runAvg speedWind from/ knotsBaromVisibWave heightAir tempDewpointWater temp
2017-Mar-19 12:33S 30°26' E 031°32'1414.0
2017-Mar-19 11:33S 30°13' E 031°39'1515.2
2017-Mar-19 10:33S 29°59' E 031°46'1615.9
2017-Mar-19 09:33S 29°45' E 031°53'3615.7
2017-Mar-19 07:16S 29°11' E 032°09'1114.9
2017-Mar-19 06:33S 29°01' E 032°10'1211.9
2017-Mar-19 05:33S 28°49' E 032°07'3 3.3
2017-Mar-19 04:31S 28°48' E 032°04'0 0.0
2017-Mar-19 03:31S 28°48' E 032°04'0 0.0
2017-Mar-19 02:31S 28°48' E 032°04'0 0.0
2017-Mar-19 01:31S 28°48' E 032°04'0 0.0
2017-Mar-19 00:31S 28°48' E 032°04'0 0.0
2017-Mar-18 23:31S 28°48' E 032°04'0 0.0
2017-Mar-18 22:31S 28°48' E 032°04'0 0.0
2017-Mar-18 21:31S 28°48' E 032°04'0 0.0
2017-Mar-18 20:31S 28°48' E 032°04'0 0.0
2017-Mar-18 19:31S 28°48' E 032°04'0 0.0
2017-Mar-18 18:31S 28°48' E 032°04'0 0.0
2017-Mar-18 17:31S 28°48' E 032°04'0 0.0
2017-Mar-18 16:31S 28°48' E 032°04'0 0.0
2017-Mar-18 15:31S 28°48' E 032°04'0 0.0
2017-Mar-18 14:31S 28°48' E 032°04'0 0.0
2017-Mar-18 13:31S 28°48' E 032°04'0 0.0
2017-Mar-18 12:31S 28°48' E 032°04'0 0.0
2017-Mar-18 11:31S 28°48' E 032°04'0 0.0
2017-Mar-18 10:31S 28°48' E 032°04'0 0.0
2017-Mar-18 09:31S 28°48' E 032°04'0 0.0
2017-Mar-18 08:31S 28°48' E 032°04'0 0.0
2017-Mar-18 07:31S 28°48' E 032°04'0 0.0
2017-Mar-18 06:22S 28°48' E 032°04'0 0.0
2017-Mar-18 05:31S 28°48' E 032°04'0 0.0
2017-Mar-18 04:31S 28°48' E 032°04'0 0.0
2017-Mar-18 03:31S 28°48' E 032°04'0 0.0
2017-Mar-18 02:31S 28°48' E 032°04'0 0.0
2017-Mar-18 01:31S 28°48' E 032°04'0 0.0
2017-Mar-18 00:28S 28°48' E 032°04'0 0.0
2017-Mar-17 23:31S 28°48' E 032°04'0 0.0
2017-Mar-17 22:31S 28°48' E 032°04'0 0.0
2017-Mar-17 21:31S 28°48' E 032°04'0 0.0
2017-Mar-17 20:31S 28°48' E 032°04'0 0.1
2017-Mar-17 19:33S 28°48' E 032°03'5 5.1
2017-Mar-17 18:33S 28°51' E 032°08'1 0.6
2017-Mar-17 17:33S 28°52' E 032°08'3 3.2
2017-Mar-17 16:33S 28°51' E 032°12'1010.0
2017-Mar-17 15:33S 29°00' E 032°07'4 3.7
2017-Mar-17 14:33S 29°04' E 032°07'1 0.9
2017-Mar-17 13:33S 29°04' E 032°06'1111.5
2017-Mar-17 12:34S 29°12' E 031°56'1514.7
2017-Mar-17 11:33S 29°24' E 031°46'1515.2
2017-Mar-17 10:33S 29°36' E 031°35'1514.7
2017-Mar-17 09:32S 29°47' E 031°24'1414.4
2017-Mar-17 08:33S 29°50' E 031°08'6 5.5
2017-Mar-17 07:31S 29°53' E 031°02'0 0.0
2017-Mar-17 06:31S 29°53' E 031°02'0 0.0
2017-Mar-17 05:31S 29°53' E 031°02'0 0.0
2017-Mar-17 04:31S 29°53' E 031°02'0 0.0
2017-Mar-17 03:31S 29°53' E 031°02'0 0.0
2017-Mar-17 02:31S 29°53' E 031°02'0 0.0
2017-Mar-17 01:31S 29°53' E 031°02'0 0.0
2017-Mar-17 00:31S 29°53' E 031°02'0 0.0
2017-Mar-16 23:31S 29°53' E 031°02'0 0.0
2017-Mar-16 22:31S 29°53' E 031°02'0 0.0
2017-Mar-16 21:25S 29°53' E 031°02'0 0.0
2017-Mar-16 20:28S 29°53' E 031°02'0 0.0
2017-Mar-16 19:31S 29°53' E 031°02'0 0.0
2017-Mar-16 18:31S 29°53' E 031°02'0 0.0
2017-Mar-16 17:31S 29°53' E 031°02'0 0.0
2017-Mar-16 16:31S 29°53' E 031°02'0 0.0
2017-Mar-16 15:31S 29°53' E 031°02'0 0.0
2017-Mar-16 14:31S 29°53' E 031°02'0 0.0
2017-Mar-16 13:31S 29°53' E 031°02'0 0.0
2017-Mar-16 12:31S 29°53' E 031°02'0 0.0
2017-Mar-16 11:31S 29°53' E 031°02'0 0.0
2017-Mar-16 10:31S 29°53' E 031°02'0 0.0
2017-Mar-16 09:31S 29°53' E 031°02'0 0.0
2017-Mar-16 08:31S 29°53' E 031°02'0 0.0
2017-Mar-16 07:31S 29°53' E 031°02'0 0.0
2017-Mar-16 06:31S 29°53' E 031°02'0 0.0
2017-Mar-16 05:31S 29°53' E 031°02'0 0.0
2017-Mar-16 04:31S 29°53' E 031°02'0 0.0
2017-Mar-16 03:28S 29°53' E 031°02'0 0.0
2017-Mar-16 02:31S 29°53' E 031°02'0 0.0
2017-Mar-16 01:31S 29°53' E 031°02'0 0.0
2017-Mar-16 00:31S 29°53' E 031°02'0 0.0
2017-Mar-15 23:31S 29°53' E 031°02'0 0.0
2017-Mar-15 22:31S 29°53' E 031°02'0 0.0
2017-Mar-15 21:31S 29°53' E 031°02'0 0.1
2017-Mar-15 20:33S 29°53' E 031°02'6 5.9
2017-Mar-15 19:32S 29°49' E 031°08'9 9.2
2017-Mar-15 18:32S 29°47' E 031°18'1414.7
2017-Mar-15 17:33S 29°44' E 031°34'13315.8
2017-Mar-15 09:09S 29°16' E 034°03'  

Dump ship's entire track history